Time;durP1;ratioP1;P1;durP2;ratioP2;P2;SDS_P1;SDS_P2;PMS_P1;PMS_P2;Temp;Humidity;BMP_temperature;BMP_pressure;BME280_temperature;BME280_humidity;BME280_pressure;Samples;Min_cycle;Max_cycle;Signal;HPM_P1;HPM_P2
2022/07/06 00:00:58;;;;;;;;;;;13.20;60.20;;;;;;4148165;28;19909;-87
2022/07/06 00:03:19;;;;;;;;;;;13.10;60.30;;;;;;4134976;28;19920;-86
2022/07/06 00:05:40;;;;;;;;;;;13.10;60.20;;;;;;4142914;28;20534;-87
2022/07/06 00:08:01;;;;;;;;;;;13.10;60.30;;;;;;4165576;28;19975;-87
2022/07/06 00:10:21;;;;;;;;;;;13.20;60.50;;;;;;4137486;28;19925;-87
2022/07/06 00:12:42;;;;;;;;;;;13.10;60.80;;;;;;4147266;28;21891;-88
2022/07/06 00:15:03;;;;;;;;;;;13.10;60.90;;;;;;4154273;28;19913;-87
2022/07/06 00:17:24;;;;;;;;;;;13.10;60.90;;;;;;4153428;28;19967;-87
2022/07/06 00:19:45;;;;;;;;;;;13.10;61.00;;;;;;4150220;28;19917;-89
2022/07/06 00:22:06;;;;;;;;;;;13.10;62.00;;;;;;4154129;28;19923;-88
2022/07/06 00:24:27;;;;;;;;;;;13.10;62.00;;;;;;4154207;28;19912;-88
2022/07/06 00:26:48;;;;;;;;;;;13.10;61.80;;;;;;4148411;28;19978;-87
2022/07/06 00:29:09;;;;;;;;;;;13.10;62.10;;;;;;4150580;28;19924;-87
2022/07/06 00:31:29;;;;;;;;;;;13.10;62.10;;;;;;4150302;28;19913;-88
2022/07/06 00:33:50;;;;;;;;;;;13.10;62.20;;;;;;4146495;28;19952;-87
2022/07/06 00:36:12;;;;;;;;;;;13.10;62.30;;;;;;4151562;28;19940;-87
2022/07/06 00:38:33;;;;;;;;;;;13.10;62.30;;;;;;4156942;28;19916;-87
2022/07/06 00:40:54;;;;;;;;;;;13.10;62.40;;;;;;4142260;28;19910;-87
2022/07/06 00:43:14;;;;;;;;;;;13.10;62.50;;;;;;4156022;28;19917;-87
2022/07/06 00:45:35;;;;;;;;;;;13.10;62.80;;;;;;4166485;28;20890;-87
2022/07/06 00:47:56;;;;;;;;;;;13.10;62.70;;;;;;4152443;28;20393;-87
2022/07/06 00:50:20;;;;;;;;;;;13.10;62.70;;;;;;4141048;28;19948;-88
2022/07/06 00:52:42;;;;;;;;;;;13.10;62.80;;;;;;4165323;28;19947;-87
2022/07/06 00:55:03;;;;;;;;;;;13.10;63.00;;;;;;4151151;28;20071;-87
2022/07/06 00:57:24;;;;;;;;;;;13.10;63.10;;;;;;4148420;28;20373;-87
2022/07/06 00:59:45;;;;;;;;;;;13.10;63.20;;;;;;4145463;28;19938;-87
2022/07/06 01:02:06;;;;;;;;;;;13.10;63.30;;;;;;4150753;28;19935;-88
2022/07/06 01:04:27;;;;;;;;;;;13.10;63.30;;;;;;4150052;28;19917;-88
2022/07/06 01:06:47;;;;;;;;;;;13.10;63.30;;;;;;4144229;28;19909;-88
2022/07/06 01:09:09;;;;;;;;;;;13.10;63.20;;;;;;4161954;28;19909;-87
2022/07/06 01:11:30;;;;;;;;;;;13.10;63.50;;;;;;4141384;28;19908;-88
2022/07/06 01:13:51;;;;;;;;;;;13.10;63.40;;;;;;4151895;28;19913;-88
2022/07/06 01:16:12;;;;;;;;;;;13.10;63.40;;;;;;4134963;28;20017;-88
2022/07/06 01:18:33;;;;;;;;;;;13.10;63.40;;;;;;4150773;28;19913;-88
2022/07/06 01:21:07;;;;;;;;;;;13.10;63.20;;;;;;4134795;28;20000;-88
2022/07/06 01:23:28;;;;;;;;;;;13.10;63.50;;;;;;4149526;28;20349;-86
2022/07/06 01:25:49;;;;;;;;;;;13.10;63.80;;;;;;4151472;28;21189;-86
2022/07/06 01:28:10;;;;;;;;;;;13.10;64.00;;;;;;4159555;28;20348;-87
2022/07/06 01:30:31;;;;;;;;;;;13.10;64.10;;;;;;4147015;28;19945;-87
2022/07/06 01:32:52;;;;;;;;;;;13.10;64.60;;;;;;4137824;28;19950;-87
2022/07/06 01:35:13;;;;;;;;;;;13.10;64.70;;;;;;4160197;28;19966;-87
2022/07/06 01:37:34;;;;;;;;;;;13.10;64.50;;;;;;4134824;28;19917;-87
2022/07/06 01:39:59;;;;;;;;;;;13.10;64.20;;;;;;4147586;28;19948;-87
2022/07/06 01:42:20;;;;;;;;;;;13.10;64.40;;;;;;4149633;28;20361;-86
2022/07/06 01:44:41;;;;;;;;;;;13.10;64.70;;;;;;4145202;28;20555;-88
2022/07/06 01:47:02;;;;;;;;;;;13.10;64.80;;;;;;4161546;28;19988;-86
2022/07/06 01:49:23;;;;;;;;;;;13.10;64.70;;;;;;4159987;28;19913;-87
2022/07/06 01:51:44;;;;;;;;;;;13.10;64.50;;;;;;4147581;28;19935;-86
2022/07/06 01:54:04;;;;;;;;;;;13.10;64.40;;;;;;4151183;28;19933;-88
2022/07/06 01:56:25;;;;;;;;;;;13.10;64.20;;;;;;4147829;28;19913;-87
2022/07/06 01:58:47;;;;;;;;;;;13.10;65.10;;;;;;4144437;28;19927;-87
2022/07/06 02:01:08;;;;;;;;;;;13.10;65.00;;;;;;4145473;28;20001;-88
2022/07/06 02:03:29;;;;;;;;;;;13.00;65.40;;;;;;4132821;28;19913;-88
2022/07/06 02:05:51;;;;;;;;;;;13.00;66.10;;;;;;4127006;28;19984;-87
2022/07/06 02:08:12;;;;;;;;;;;13.00;65.80;;;;;;4146719;28;19971;-87
2022/07/06 02:10:33;;;;;;;;;;;13.00;65.90;;;;;;4151343;28;19943;-88
2022/07/06 02:12:54;;;;;;;;;;;13.00;66.50;;;;;;4134940;28;19941;-86
2022/07/06 02:15:14;;;;;;;;;;;13.00;66.10;;;;;;4149306;28;19913;-88
2022/07/06 02:17:35;;;;;;;;;;;12.90;65.80;;;;;;4148117;28;19910;-87
2022/07/06 02:19:56;;;;;;;;;;;12.90;65.80;;;;;;4143775;28;20392;-87
2022/07/06 02:22:17;;;;;;;;;;;12.90;66.70;;;;;;4146947;28;20319;-87
2022/07/06 02:24:38;;;;;;;;;;;13.00;66.30;;;;;;4151887;28;20552;-87
2022/07/06 02:26:59;;;;;;;;;;;12.90;65.80;;;;;;4147826;28;19920;-87
2022/07/06 02:29:20;;;;;;;;;;;12.90;65.10;;;;;;4151852;28;20446;-87
2022/07/06 02:31:40;;;;;;;;;;;12.90;65.00;;;;;;4145784;28;19920;-87
2022/07/06 02:34:01;;;;;;;;;;;12.90;65.50;;;;;;4144286;28;20449;-87
2022/07/06 02:36:22;;;;;;;;;;;12.90;66.00;;;;;;4148594;28;20498;-88
2022/07/06 02:38:43;;;;;;;;;;;12.90;66.70;;;;;;4143023;28;19908;-87
2022/07/06 02:41:04;;;;;;;;;;;12.90;66.40;;;;;;4150852;28;19917;-87
2022/07/06 02:43:25;;;;;;;;;;;12.80;66.00;;;;;;4135186;28;19913;-86
2022/07/06 02:45:46;;;;;;;;;;;12.80;65.80;;;;;;4152390;28;20618;-87
2022/07/06 02:48:06;;;;;;;;;;;12.80;65.90;;;;;;4150506;28;20033;-87
2022/07/06 02:50:27;;;;;;;;;;;12.80;66.40;;;;;;4147152;28;20008;-87
2022/07/06 02:52:48;;;;;;;;;;;12.70;66.30;;;;;;4137268;28;19909;-88
2022/07/06 02:55:09;;;;;;;;;;;12.80;65.20;;;;;;4154299;28;19913;-87
2022/07/06 02:57:30;;;;;;;;;;;12.80;65.30;;;;;;4142126;28;20508;-87
2022/07/06 02:59:51;;;;;;;;;;;12.70;65.30;;;;;;4165140;28;20400;-87
2022/07/06 03:02:11;;;;;;;;;;;12.70;65.40;;;;;;4135779;28;19962;-87
2022/07/06 03:04:33;;;;;;;;;;;12.70;65.10;;;;;;4152111;28;19924;-87
2022/07/06 03:06:54;;;;;;;;;;;12.70;65.30;;;;;;4153198;28;20270;-86
2022/07/06 03:09:14;;;;;;;;;;;12.70;65.60;;;;;;4162005;28;19940;-87
2022/07/06 03:11:36;;;;;;;;;;;12.70;65.40;;;;;;4153815;28;19999;-87
2022/07/06 03:13:56;;;;;;;;;;;12.70;65.10;;;;;;4139936;28;19961;-87
2022/07/06 03:16:17;;;;;;;;;;;12.70;65.00;;;;;;4153517;28;19914;-88
2022/07/06 03:18:38;;;;;;;;;;;12.70;65.10;;;;;;4151043;28;19916;-87
2022/07/06 03:21:00;;;;;;;;;;;12.70;65.20;;;;;;4148324;28;19913;-87
2022/07/06 03:23:21;;;;;;;;;;;12.70;65.10;;;;;;4163635;28;19970;-86
2022/07/06 03:25:42;;;;;;;;;;;12.60;64.80;;;;;;4135189;28;19913;-87
2022/07/06 03:28:03;;;;;;;;;;;12.70;64.90;;;;;;4151955;28;19917;-86
2022/07/06 03:30:24;;;;;;;;;;;12.70;65.00;;;;;;4146524;28;20852;-85
2022/07/06 03:32:44;;;;;;;;;;;12.70;65.20;;;;;;4147446;28;19949;-85
2022/07/06 03:35:06;;;;;;;;;;;12.60;65.40;;;;;;4143039;28;19917;-86
2022/07/06 03:37:27;;;;;;;;;;;12.70;65.30;;;;;;4164021;28;19917;-87
2022/07/06 03:39:48;;;;;;;;;;;12.70;65.40;;;;;;4159025;28;20490;-87
2022/07/06 03:42:09;;;;;;;;;;;12.60;65.30;;;;;;4154115;28;19917;-87
2022/07/06 03:44:30;;;;;;;;;;;12.70;65.40;;;;;;4148502;28;19925;-87
2022/07/06 03:46:52;;;;;;;;;;;12.70;65.50;;;;;;4147934;28;19948;-87
2022/07/06 03:49:13;;;;;;;;;;;12.70;65.60;;;;;;4144132;28;20663;-87
2022/07/06 03:51:34;;;;;;;;;;;12.70;65.60;;;;;;4152892;28;19909;-86
2022/07/06 03:53:55;;;;;;;;;;;12.70;65.70;;;;;;4158940;28;19920;-86
2022/07/06 03:56:28;;;;;;;;;;;12.70;65.80;;;;;;4132377;28;19923;-87
2022/07/06 03:58:49;;;;;;;;;;;12.70;65.90;;;;;;4143492;28;20069;-87
2022/07/06 04:01:10;;;;;;;;;;;12.70;65.90;;;;;;4150694;28;19940;-86
2022/07/06 04:03:31;;;;;;;;;;;12.70;66.30;;;;;;4150256;28;19916;-87
2022/07/06 04:05:52;;;;;;;;;;;12.70;66.30;;;;;;4139415;28;20000;-87
2022/07/06 04:08:13;;;;;;;;;;;12.70;66.40;;;;;;4148331;28;19940;-88
2022/07/06 04:10:33;;;;;;;;;;;12.80;66.40;;;;;;4135907;28;19913;-86
2022/07/06 04:12:54;;;;;;;;;;;12.80;66.50;;;;;;4144139;28;20394;-87
2022/07/06 04:15:15;;;;;;;;;;;12.80;66.60;;;;;;4149573;28;19916;-86
2022/07/06 04:17:55;;;;;;;;;;;12.80;66.50;;;;;;4156642;28;19913;-87
2022/07/06 04:20:16;;;;;;;;;;;12.80;66.90;;;;;;4137713;28;19917;-87
2022/07/06 04:22:38;;;;;;;;;;;12.80;67.30;;;;;;4144866;28;21873;-86
2022/07/06 04:24:59;;;;;;;;;;;12.90;67.30;;;;;;4146519;28;19920;-86
2022/07/06 04:27:19;;;;;;;;;;;12.90;67.30;;;;;;4148483;28;20050;-87
2022/07/06 04:29:40;;;;;;;;;;;12.90;67.90;;;;;;4150274;28;19913;-88
2022/07/06 04:32:01;;;;;;;;;;;12.90;68.20;;;;;;4148427;28;20320;-88
2022/07/06 04:34:22;;;;;;;;;;;13.00;68.10;;;;;;4146826;28;20444;-86
2022/07/06 04:36:43;;;;;;;;;;;13.00;68.30;;;;;;4148250;28;19917;-87
2022/07/06 04:39:04;;;;;;;;;;;13.10;68.50;;;;;;4144184;28;20464;-87
2022/07/06 04:41:25;;;;;;;;;;;13.20;68.40;;;;;;4150787;28;19909;-85
2022/07/06 04:43:46;;;;;;;;;;;13.20;69.40;;;;;;4166511;28;19909;-86
2022/07/06 04:46:07;;;;;;;;;;;13.40;70.30;;;;;;4161800;28;19909;-88
2022/07/06 04:48:27;;;;;;;;;;;13.50;71.50;;;;;;4151312;28;20104;-87
2022/07/06 04:50:48;;;;;;;;;;;13.60;70.40;;;;;;4146822;28;19996;-87
2022/07/06 04:53:09;;;;;;;;;;;13.70;70.30;;;;;;4152001;28;19913;-86
2022/07/06 04:55:30;;;;;;;;;;;13.90;72.10;;;;;;4144757;28;19909;-87
2022/07/06 04:57:54;;;;;;;;;;;13.90;72.80;;;;;;4144175;28;20127;-88
2022/07/06 05:00:15;;;;;;;;;;;14.00;71.80;;;;;;4148035;28;19913;-86
2022/07/06 05:02:36;;;;;;;;;;;14.20;71.60;;;;;;4146831;28;20557;-86
2022/07/06 05:04:57;;;;;;;;;;;14.30;71.70;;;;;;4143764;28;20051;-86
2022/07/06 05:07:18;;;;;;;;;;;14.30;70.60;;;;;;4149317;28;19917;-87
2022/07/06 05:09:39;;;;;;;;;;;14.40;71.00;;;;;;4146569;28;19924;-87
2022/07/06 05:12:00;;;;;;;;;;;14.50;71.30;;;;;;4139571;28;20285;-86
2022/07/06 05:14:21;;;;;;;;;;;14.60;71.20;;;;;;4148493;28;20027;-86
2022/07/06 05:16:42;;;;;;;;;;;14.70;70.90;;;;;;4135770;28;20631;-86
2022/07/06 05:19:02;;;;;;;;;;;14.80;70.60;;;;;;4143864;28;19920;-87
2022/07/06 05:21:24;;;;;;;;;;;15.00;71.00;;;;;;4142466;28;19997;-86
2022/07/06 05:23:45;;;;;;;;;;;15.00;70.20;;;;;;4145737;28;19921;-86
2022/07/06 05:26:06;;;;;;;;;;;15.10;69.80;;;;;;4162189;28;19908;-87
2022/07/06 05:28:27;;;;;;;;;;;15.20;69.20;;;;;;4148758;28;19979;-85
2022/07/06 05:30:48;;;;;;;;;;;15.30;68.20;;;;;;4133956;28;20340;-86
2022/07/06 05:33:09;;;;;;;;;;;15.30;67.70;;;;;;4144129;28;19967;-86
2022/07/06 05:35:30;;;;;;;;;;;15.40;67.20;;;;;;4146563;28;19970;-82
2022/07/06 05:37:51;;;;;;;;;;;15.50;67.10;;;;;;4133817;28;20312;-87
2022/07/06 05:40:12;;;;;;;;;;;15.50;66.50;;;;;;4145821;28;19928;-87
2022/07/06 05:42:33;;;;;;;;;;;15.60;66.20;;;;;;4153439;28;19917;-87
2022/07/06 05:44:55;;;;;;;;;;;15.60;66.00;;;;;;4156466;28;19926;-86
2022/07/06 05:50:17;;;;;;;;;;;15.70;64.40;;;;;;4146025;28;19952;-86
2022/07/06 05:52:38;;;;;;;;;;;15.80;64.40;;;;;;4135844;28;19924;-87
2022/07/06 05:54:59;;;;;;;;;;;15.80;64.40;;;;;;4131669;28;19936;-88
2022/07/06 05:57:20;;;;;;;;;;;15.90;64.00;;;;;;4137244;28;19913;-86
2022/07/06 05:59:41;;;;;;;;;;;15.90;63.50;;;;;;4146851;28;19917;-86
2022/07/06 06:02:02;;;;;;;;;;;15.90;63.00;;;;;;4129605;28;19917;-86
2022/07/06 06:04:23;;;;;;;;;;;16.00;63.00;;;;;;4145786;28;19921;-87
2022/07/06 06:06:44;;;;;;;;;;;16.00;62.40;;;;;;4144948;28;20224;-86
2022/07/06 06:09:05;;;;;;;;;;;16.00;61.60;;;;;;4146352;28;19935;-87
2022/07/06 06:11:26;;;;;;;;;;;16.10;62.00;;;;;;4132895;28;19913;-86
2022/07/06 06:13:47;;;;;;;;;;;16.10;61.90;;;;;;4160228;28;19917;-87
2022/07/06 06:16:08;;;;;;;;;;;16.10;61.50;;;;;;4151319;28;19917;-86
2022/07/06 06:18:28;;;;;;;;;;;16.10;61.60;;;;;;4161788;28;19952;-85
2022/07/06 06:20:49;;;;;;;;;;;16.10;61.30;;;;;;4162663;28;19916;-86
2022/07/06 06:23:10;;;;;;;;;;;16.10;61.30;;;;;;4139434;28;19909;-86
2022/07/06 06:25:33;;;;;;;;;;;16.10;61.10;;;;;;4141712;28;19913;-88
2022/07/06 06:27:53;;;;;;;;;;;16.10;60.60;;;;;;4149265;28;20570;-85
2022/07/06 06:30:15;;;;;;;;;;;16.10;60.30;;;;;;4150778;28;20361;-85
2022/07/06 06:32:36;;;;;;;;;;;16.10;60.40;;;;;;4144003;28;19992;-85
2022/07/06 06:34:56;;;;;;;;;;;16.00;60.30;;;;;;4139325;28;19913;-85
2022/07/06 06:37:17;;;;;;;;;;;16.00;60.30;;;;;;4140476;28;19919;-86
2022/07/06 06:39:38;;;;;;;;;;;16.00;60.40;;;;;;4132601;28;19921;-85
2022/07/06 06:41:59;;;;;;;;;;;15.90;60.10;;;;;;4134799;28;19945;-85
2022/07/06 06:44:22;;;;;;;;;;;15.90;60.30;;;;;;4139043;28;19928;-86
2022/07/06 06:46:43;;;;;;;;;;;15.80;60.40;;;;;;4145534;28;20391;-86
2022/07/06 06:49:05;;;;;;;;;;;15.80;60.50;;;;;;4137037;28;21263;-86
2022/07/06 06:51:26;;;;;;;;;;;15.80;60.70;;;;;;4142937;28;19916;-85
2022/07/06 06:53:47;;;;;;;;;;;15.80;60.70;;;;;;4145768;28;19913;-85
2022/07/06 06:56:08;;;;;;;;;;;15.80;60.80;;;;;;4131871;28;19917;-86
2022/07/06 06:58:29;;;;;;;;;;;15.80;61.40;;;;;;4122195;28;19928;-86
2022/07/06 07:00:50;;;;;;;;;;;15.70;61.50;;;;;;4141941;28;19917;-87
2022/07/06 07:03:11;;;;;;;;;;;15.80;61.70;;;;;;4141917;28;19968;-85
2022/07/06 07:05:32;;;;;;;;;;;15.80;61.80;;;;;;4146512;28;20259;-85
2022/07/06 07:07:54;;;;;;;;;;;15.90;62.00;;;;;;4148972;28;19913;-87
2022/07/06 07:10:15;;;;;;;;;;;15.90;62.10;;;;;;4137035;28;19917;-87
2022/07/06 07:12:41;;;;;;;;;;;16.00;62.30;;;;;;4144457;28;19917;-87
2022/07/06 07:15:02;;;;;;;;;;;16.00;62.40;;;;;;4151070;28;19913;-86
2022/07/06 07:17:24;;;;;;;;;;;16.10;62.50;;;;;;4145829;28;19979;-86
2022/07/06 07:19:44;;;;;;;;;;;16.20;61.40;;;;;;4130142;28;21503;-86
2022/07/06 07:22:05;;;;;;;;;;;16.30;61.90;;;;;;4156210;28;19984;-86
2022/07/06 07:24:26;;;;;;;;;;;16.40;61.90;;;;;;4150195;28;19921;-86
2022/07/06 07:26:47;;;;;;;;;;;16.40;61.60;;;;;;4149350;28;20418;-87
2022/07/06 07:29:08;;;;;;;;;;;16.50;61.30;;;;;;4147935;28;20838;-86
2022/07/06 07:31:29;;;;;;;;;;;16.60;61.30;;;;;;4157162;28;20110;-86
2022/07/06 07:33:50;;;;;;;;;;;16.60;60.80;;;;;;4150873;28;19924;-86
2022/07/06 07:36:11;;;;;;;;;;;16.60;60.60;;;;;;4152846;28;20082;-87
2022/07/06 07:38:32;;;;;;;;;;;16.70;60.50;;;;;;4149519;28;19909;-86
2022/07/06 07:40:53;;;;;;;;;;;16.70;60.30;;;;;;4156005;28;19917;-87
2022/07/06 07:43:14;;;;;;;;;;;16.70;60.00;;;;;;4154410;28;19985;-87
2022/07/06 07:45:35;;;;;;;;;;;16.70;60.20;;;;;;4157836;28;19913;-87
2022/07/06 07:47:56;;;;;;;;;;;16.80;60.10;;;;;;4150321;28;19956;-86
2022/07/06 07:50:18;;;;;;;;;;;16.70;60.10;;;;;;4167634;28;19919;-87
2022/07/06 07:52:39;;;;;;;;;;;16.80;60.40;;;;;;4153621;28;19913;-86
2022/07/06 07:54:59;;;;;;;;;;;16.80;60.70;;;;;;4170640;28;19923;-86
2022/07/06 07:57:20;;;;;;;;;;;16.90;61.00;;;;;;4157404;28;20088;-87
2022/07/06 07:59:42;;;;;;;;;;;16.90;60.70;;;;;;4154553;28;19972;-87
2022/07/06 08:02:03;;;;;;;;;;;17.00;60.50;;;;;;4154917;28;20091;-87
2022/07/06 08:04:24;;;;;;;;;;;17.10;60.30;;;;;;4154588;28;20124;-87
2022/07/06 08:06:44;;;;;;;;;;;17.10;60.00;;;;;;4158271;28;19978;-88
2022/07/06 08:09:07;;;;;;;;;;;17.10;59.90;;;;;;4164737;28;19936;-87
2022/07/06 08:11:28;;;;;;;;;;;17.20;59.80;;;;;;4157651;28;19917;-87
2022/07/06 08:13:49;;;;;;;;;;;17.20;59.80;;;;;;4154809;28;20344;-86
2022/07/06 08:16:10;;;;;;;;;;;17.20;59.70;;;;;;4153372;28;20372;-85
2022/07/06 08:18:30;;;;;;;;;;;17.30;58.60;;;;;;4155407;28;19960;-86
2022/07/06 08:20:52;;;;;;;;;;;17.30;58.70;;;;;;4141945;28;19921;-87
2022/07/06 08:23:13;;;;;;;;;;;17.40;58.80;;;;;;4144684;28;19917;-87
2022/07/06 08:25:34;;;;;;;;;;;17.40;58.00;;;;;;4157596;28;19917;-87
2022/07/06 08:27:55;;;;;;;;;;;17.40;56.50;;;;;;4159550;28;20353;-86
2022/07/06 08:30:16;;;;;;;;;;;17.40;55.80;;;;;;4160946;28;19913;-85
2022/07/06 08:32:38;;;;;;;;;;;17.40;56.10;;;;;;4155813;28;19932;-84
2022/07/06 08:34:59;;;;;;;;;;;17.40;55.80;;;;;;4159192;28;19917;-84
2022/07/06 08:37:20;;;;;;;;;;;17.40;55.80;;;;;;4154676;28;20023;-86
2022/07/06 08:39:41;;;;;;;;;;;17.40;56.20;;;;;;4154800;28;19936;-85
2022/07/06 08:42:02;;;;;;;;;;;17.40;56.30;;;;;;4167894;28;20040;-86
2022/07/06 08:44:23;;;;;;;;;;;17.40;56.20;;;;;;4143788;28;20032;-86
2022/07/06 08:46:44;;;;;;;;;;;17.50;56.20;;;;;;4158262;28;19908;-85
2022/07/06 08:49:11;;;;;;;;;;;17.50;56.30;;;;;;4156428;28;19913;-86
2022/07/06 08:51:34;;;;;;;;;;;17.60;55.60;;;;;;4156249;28;20373;-86
2022/07/06 08:53:55;;;;;;;;;;;17.60;54.50;;;;;;4155754;28;19909;-85
2022/07/06 08:56:18;;;;;;;;;;;17.70;54.80;;;;;;4147375;28;19914;-84
2022/07/06 08:58:41;;;;;;;;;;;17.70;53.70;;;;;;4150985;28;19924;-85
2022/07/06 09:01:02;;;;;;;;;;;17.80;54.50;;;;;;4154444;28;19919;-87
2022/07/06 09:03:24;;;;;;;;;;;17.80;53.40;;;;;;4156117;28;20109;-87
2022/07/06 09:05:46;;;;;;;;;;;17.80;53.30;;;;;;4155227;28;19920;-87
2022/07/06 09:08:06;;;;;;;;;;;17.90;52.80;;;;;;4154624;28;19920;-85
2022/07/06 09:10:27;;;;;;;;;;;17.90;53.10;;;;;;4157019;28;19915;-88
2022/07/06 09:12:48;;;;;;;;;;;18.00;52.50;;;;;;4152595;28;19916;-86
2022/07/06 09:15:09;;;;;;;;;;;18.00;52.00;;;;;;4154484;28;19916;-86
2022/07/06 09:17:30;;;;;;;;;;;18.10;52.00;;;;;;4140637;28;19913;-87
2022/07/06 09:19:51;;;;;;;;;;;18.10;50.90;;;;;;4142503;28;20256;-88
2022/07/06 09:22:24;;;;;;;;;;;18.20;50.90;;;;;;4154971;28;19924;-88
2022/07/06 09:24:45;;;;;;;;;;;18.20;51.80;;;;;;4167958;28;19913;-87
2022/07/06 09:27:06;;;;;;;;;;;18.30;51.30;;;;;;4155143;28;20322;-86
2022/07/06 09:29:28;;;;;;;;;;;18.30;51.30;;;;;;4173928;28;19936;-87
2022/07/06 09:31:55;;;;;;;;;;;18.40;51.70;;;;;;4158520;28;20380;-87
2022/07/06 09:34:16;;;;;;;;;;;18.50;51.40;;;;;;4158436;28;19924;-86
2022/07/06 09:36:45;;;;;;;;;;;18.50;51.50;;;;;;4155905;28;19919;-87
2022/07/06 09:39:16;;;;;;;;;;;18.60;51.80;;;;;;4153603;28;19916;-86
2022/07/06 09:41:37;;;;;;;;;;;18.60;50.10;;;;;;4160813;28;19909;-87
2022/07/06 09:43:58;;;;;;;;;;;18.70;50.60;;;;;;4154577;28;19913;-87
2022/07/06 09:46:18;;;;;;;;;;;18.70;50.20;;;;;;4153758;28;20532;-87
2022/07/06 09:48:40;;;;;;;;;;;18.70;50.50;;;;;;4143868;28;19917;-87
2022/07/06 09:51:02;;;;;;;;;;;18.70;50.70;;;;;;4154893;28;19917;-86
2022/07/06 09:53:24;;;;;;;;;;;18.70;49.50;;;;;;4163347;28;20019;-88
2022/07/06 09:55:46;;;;;;;;;;;18.80;49.60;;;;;;4159647;28;20385;-86
2022/07/06 09:58:07;;;;;;;;;;;18.80;49.40;;;;;;4159563;28;20397;-87
2022/07/06 10:00:28;;;;;;;;;;;18.80;48.90;;;;;;4152241;28;19920;-86
2022/07/06 10:02:50;;;;;;;;;;;18.80;50.00;;;;;;4152940;28;20055;-86
2022/07/06 10:05:11;;;;;;;;;;;18.80;49.40;;;;;;4157834;28;20380;-86
2022/07/06 10:07:32;;;;;;;;;;;18.70;49.60;;;;;;4154457;28;19997;-88
2022/07/06 10:09:53;;;;;;;;;;;18.70;49.70;;;;;;4153814;28;19999;-87
2022/07/06 10:12:16;;;;;;;;;;;18.70;49.20;;;;;;4154443;28;19919;-84
2022/07/06 10:14:37;;;;;;;;;;;18.70;49.60;;;;;;4155501;28;19923;-88
2022/07/06 10:16:59;;;;;;;;;;;18.70;49.10;;;;;;4160693;28;19909;-86
2022/07/06 10:19:21;;;;;;;;;;;18.70;48.20;;;;;;4155279;28;19909;-87
2022/07/06 10:21:42;;;;;;;;;;;18.70;48.50;;;;;;4154307;28;19940;-87
2022/07/06 10:24:04;;;;;;;;;;;18.70;48.80;;;;;;4155117;28;20414;-86
2022/07/06 10:26:25;;;;;;;;;;;18.60;48.60;;;;;;4138769;28;20008;-87
2022/07/06 10:28:48;;;;;;;;;;;18.60;48.40;;;;;;4156102;28;20736;-86
2022/07/06 10:31:09;;;;;;;;;;;18.60;49.00;;;;;;4141902;28;19909;-87
2022/07/06 10:33:30;;;;;;;;;;;18.70;49.20;;;;;;4154385;28;19909;-88
2022/07/06 10:35:51;;;;;;;;;;;18.70;49.00;;;;;;4139394;28;19957;-86
2022/07/06 10:38:12;;;;;;;;;;;18.80;48.70;;;;;;4162365;28;19917;-86
2022/07/06 10:43:14;;;;;;;;;;;18.90;49.00;;;;;;4152194;28;19940;-86
2022/07/06 10:45:35;;;;;;;;;;;19.00;48.90;;;;;;4158898;28;19943;-86
2022/07/06 10:48:11;;;;;;;;;;;19.10;47.10;;;;;;4155975;28;19917;-86
2022/07/06 10:50:35;;;;;;;;;;;19.10;46.60;;;;;;4151710;28;20004;-86
2022/07/06 10:52:59;;;;;;;;;;;19.10;46.70;;;;;;4152719;28;19920;-86
2022/07/06 10:55:32;;;;;;;;;;;19.00;46.20;;;;;;4155606;28;19991;-85
2022/07/06 10:57:53;;;;;;;;;;;19.00;46.90;;;;;;4161282;28;19918;-85
2022/07/06 11:00:14;;;;;;;;;;;18.90;47.00;;;;;;4140409;28;20637;-86
2022/07/06 11:02:38;;;;;;;;;;;18.90;47.10;;;;;;4164407;28;19924;-84
2022/07/06 11:04:59;;;;;;;;;;;18.80;47.00;;;;;;4151433;28;20293;-87
2022/07/06 11:07:20;;;;;;;;;;;18.80;47.50;;;;;;4157862;28;19942;-84
2022/07/06 11:09:47;;;;;;;;;;;18.80;47.50;;;;;;4145218;28;20368;-85
2022/07/06 11:12:11;;;;;;;;;;;18.80;47.30;;;;;;4142634;28;19913;-87
2022/07/06 11:14:36;;;;;;;;;;;18.80;47.60;;;;;;4151022;28;19913;-86
2022/07/06 11:17:00;;;;;;;;;;;18.80;48.10;;;;;;4154569;28;19931;-86
2022/07/06 11:19:25;;;;;;;;;;;18.90;47.00;;;;;;4153688;28;19920;-85
2022/07/06 11:21:51;;;;;;;;;;;19.00;46.60;;;;;;4154098;28;19913;-87
2022/07/06 11:24:32;;;;;;;;;;;19.00;46.70;;;;;;4141177;28;19956;-86
2022/07/06 11:26:53;;;;;;;;;;;19.10;46.60;;;;;;4163512;28;19994;-87
2022/07/06 11:29:17;;;;;;;;;;;19.10;45.00;;;;;;4146840;28;20394;-89
2022/07/06 11:31:39;;;;;;;;;;;19.20;45.70;;;;;;4159378;28;20036;-87
2022/07/06 11:34:00;;;;;;;;;;;19.20;43.60;;;;;;4142969;28;19993;-87
2022/07/06 11:36:21;;;;;;;;;;;19.30;44.80;;;;;;4149953;28;19928;-88
2022/07/06 11:38:43;;;;;;;;;;;19.30;45.20;;;;;;4160791;28;20411;-85
2022/07/06 11:41:04;;;;;;;;;;;19.30;44.60;;;;;;4150116;28;19917;-89
2022/07/06 11:43:25;;;;;;;;;;;19.30;43.80;;;;;;4147836;28;19916;-87
2022/07/06 11:45:46;;;;;;;;;;;19.30;43.60;;;;;;4161326;28;20398;-86
2022/07/06 11:48:11;;;;;;;;;;;19.30;43.40;;;;;;4152562;28;19917;-87
2022/07/06 11:50:31;;;;;;;;;;;19.30;43.70;;;;;;4148200;28;19923;-87
2022/07/06 11:52:52;;;;;;;;;;;19.20;44.10;;;;;;4150697;28;19964;-87
2022/07/06 11:55:16;;;;;;;;;;;19.20;44.40;;;;;;4133205;28;19920;-87
2022/07/06 11:57:38;;;;;;;;;;;19.10;44.40;;;;;;4156046;28;19923;-87
2022/07/06 11:59:59;;;;;;;;;;;19.10;44.90;;;;;;4148894;28;19952;-86
2022/07/06 12:02:19;;;;;;;;;;;19.10;45.40;;;;;;4146438;28;20289;-87
2022/07/06 12:04:41;;;;;;;;;;;19.10;46.10;;;;;;4162589;28;20519;-87
2022/07/06 12:07:03;;;;;;;;;;;19.10;46.70;;;;;;4154907;28;20229;-87
2022/07/06 12:09:24;;;;;;;;;;;19.10;47.20;;;;;;4148713;28;19908;-88
2022/07/06 12:11:46;;;;;;;;;;;19.20;46.80;;;;;;4137094;28;19916;-88
2022/07/06 12:14:17;;;;;;;;;;;19.20;47.00;;;;;;4156409;28;20005;-87
2022/07/06 12:16:39;;;;;;;;;;;19.20;46.80;;;;;;4150647;28;21479;-84
2022/07/06 12:19:00;;;;;;;;;;;19.20;46.70;;;;;;4151255;28;19920;-85
2022/07/06 12:21:21;;;;;;;;;;;19.20;46.50;;;;;;4155132;28;19913;-86
2022/07/06 12:23:46;;;;;;;;;;;19.20;46.30;;;;;;4148959;28;19909;-86
2022/07/06 12:26:08;;;;;;;;;;;19.10;46.40;;;;;;4152877;28;19909;-87
2022/07/06 12:28:29;;;;;;;;;;;19.10;46.30;;;;;;4152641;28;20408;-86
2022/07/06 12:30:50;;;;;;;;;;;19.00;46.30;;;;;;4153588;28;19912;-87
2022/07/06 12:33:19;;;;;;;;;;;19.00;46.60;;;;;;4151723;28;19923;-88
2022/07/06 12:35:41;;;;;;;;;;;19.00;46.40;;;;;;4166365;28;19913;-83
2022/07/06 12:38:02;;;;;;;;;;;18.90;46.80;;;;;;4163223;28;21162;-88
2022/07/06 12:40:25;;;;;;;;;;;18.90;47.00;;;;;;4144824;28;20550;-87
2022/07/06 12:42:47;;;;;;;;;;;18.80;46.90;;;;;;4152148;28;19960;-86
2022/07/06 12:45:07;;;;;;;;;;;18.80;47.10;;;;;;4149986;28;19917;-86
2022/07/06 12:47:28;;;;;;;;;;;18.80;47.20;;;;;;4145175;28;19917;-87
2022/07/06 12:50:04;;;;;;;;;;;18.80;47.30;;;;;;4147244;28;19912;-86
2022/07/06 12:52:28;;;;;;;;;;;18.80;46.90;;;;;;4134939;28;19913;-88
2022/07/06 12:54:50;;;;;;;;;;;18.80;47.00;;;;;;4146598;28;19917;-87
2022/07/06 12:57:12;;;;;;;;;;;18.90;47.60;;;;;;4143978;28;19921;-87
2022/07/06 12:59:34;;;;;;;;;;;19.00;47.40;;;;;;4150017;28;19913;-87
2022/07/06 13:01:56;;;;;;;;;;;19.00;47.20;;;;;;4141771;28;19909;-86
2022/07/06 13:04:17;;;;;;;;;;;19.10;47.60;;;;;;4135958;28;19918;-85
2022/07/06 13:06:38;;;;;;;;;;;19.20;46.80;;;;;;4151475;28;19964;-87
2022/07/06 13:08:59;;;;;;;;;;;19.20;46.60;;;;;;4149650;28;20048;-86
2022/07/06 13:11:20;;;;;;;;;;;19.20;46.60;;;;;;4136225;28;19915;-87
2022/07/06 13:13:44;;;;;;;;;;;19.20;46.00;;;;;;4139631;28;19917;-86
2022/07/06 13:16:05;;;;;;;;;;;19.20;46.30;;;;;;4149820;28;19909;-87
2022/07/06 13:18:26;;;;;;;;;;;19.30;46.50;;;;;;4150457;28;20400;-86
2022/07/06 13:20:47;;;;;;;;;;;19.30;46.70;;;;;;4150710;28;19923;-85
2022/07/06 13:23:07;;;;;;;;;;;19.30;46.80;;;;;;4153197;28;19920;-86
2022/07/06 13:25:28;;;;;;;;;;;19.40;46.90;;;;;;4147238;28;19925;-85
2022/07/06 13:27:49;;;;;;;;;;;19.40;47.00;;;;;;4141790;28;20361;-86
2022/07/06 13:30:10;;;;;;;;;;;19.40;46.60;;;;;;4129840;28;19909;-87
2022/07/06 13:32:32;;;;;;;;;;;19.40;46.70;;;;;;4152482;28;20192;-87
2022/07/06 13:34:53;;;;;;;;;;;19.40;46.90;;;;;;4133156;28;19927;-86
2022/07/06 13:37:14;;;;;;;;;;;19.40;47.10;;;;;;4151619;28;19978;-85
2022/07/06 13:39:35;;;;;;;;;;;19.50;47.20;;;;;;4147891;28;20071;-85
2022/07/06 13:41:56;;;;;;;;;;;19.50;46.70;;;;;;4150978;28;20713;-85
2022/07/06 13:44:16;;;;;;;;;;;19.60;45.40;;;;;;4156202;28;19963;-85
2022/07/06 13:46:44;;;;;;;;;;;19.70;44.30;;;;;;4138838;28;21940;-87
2022/07/06 13:49:05;;;;;;;;;;;19.70;44.90;;;;;;4152775;28;20132;-86